createdAt,value
2017-03-31T00:00:15.719Z,1004.53
2017-03-31T00:00:37.469Z,1004.52
2017-03-31T00:00:59.211Z,1004.48
2017-03-31T00:01:20.975Z,1004.44
2017-03-31T00:01:42.702Z,1004.70
2017-03-31T00:02:04.400Z,1004.63
2017-03-31T00:02:26.126Z,1004.73
2017-03-31T00:03:28.652Z,1004.59
2017-03-31T00:03:50.343Z,1004.50
2017-03-31T00:04:12.148Z,1004.41
2017-03-31T00:04:33.844Z,1004.62
2017-03-31T00:04:55.532Z,1004.51
2017-03-31T00:05:17.226Z,1004.60
2017-03-31T00:05:38.923Z,1004.49
2017-03-31T00:06:00.664Z,1004.43
2017-03-31T00:06:22.388Z,1004.42
2017-03-31T00:06:44.108Z,1004.58
2017-03-31T00:07:05.929Z,1004.59
2017-03-31T00:07:27.633Z,1004.68
2017-03-31T00:07:49.411Z,1004.60
2017-03-31T00:08:11.154Z,1004.75
2017-03-31T00:08:32.951Z,1004.39
2017-03-31T00:08:54.687Z,1004.56
2017-03-31T00:09:55.785Z,1004.17
2017-03-31T00:10:22.346Z,1004.44
2017-03-31T00:11:15.357Z,1004.33
2017-03-31T00:11:37.111Z,1004.32
2017-03-31T00:12:30.178Z,1004.32
2017-03-31T00:12:51.903Z,1004.29
2017-03-31T00:13:13.664Z,1004.39
2017-03-31T00:13:35.431Z,1004.39
2017-03-31T00:13:57.160Z,1004.73
2017-03-31T00:14:18.909Z,1004.67
2017-03-31T00:14:40.698Z,1004.53
2017-03-31T00:15:02.433Z,1004.50
2017-03-31T00:15:24.194Z,1004.61
2017-03-31T00:16:22.541Z,1004.35
2017-03-31T00:16:44.303Z,1004.29
2017-03-31T00:17:06.106Z,1004.13
2017-03-31T00:17:27.934Z,1004.24
2017-03-31T00:17:49.751Z,1004.52
2017-03-31T00:18:11.602Z,1004.31
2017-03-31T00:19:12.910Z,1004.30
2017-03-31T00:20:05.946Z,1004.21
2017-03-31T00:21:04.307Z,1004.26
2017-03-31T00:21:26.040Z,1004.23
2017-03-31T00:21:47.758Z,1004.50
2017-03-31T00:22:09.453Z,1004.45
2017-03-31T00:22:31.223Z,1004.13
2017-03-31T00:22:52.922Z,1004.27
2017-03-31T00:23:14.708Z,1004.31
2017-03-31T00:23:36.424Z,1004.15
2017-03-31T00:23:58.163Z,1004.14
2017-03-31T00:24:19.919Z,1004.18
2017-03-31T00:24:41.676Z,1004.28
2017-03-31T00:25:03.447Z,1004.33
2017-03-31T00:25:25.162Z,1004.32
2017-03-31T00:26:18.180Z,1004.03
2017-03-31T00:27:16.991Z,1004.07
2017-03-31T00:27:43.489Z,1004.13
2017-03-31T00:28:05.244Z,1004.15
2017-03-31T00:28:58.226Z,1004.22
2017-03-31T00:29:51.233Z,1004.56
2017-03-31T00:30:13.190Z,1004.17
2017-03-31T00:30:34.919Z,1004.07
2017-03-31T00:31:01.502Z,1004.20
2017-03-31T00:31:27.993Z,1004.21
2017-03-31T00:31:49.748Z,1004.24
2017-03-31T00:32:11.536Z,1004.19
2017-03-31T00:32:38.039Z,1003.96
2017-03-31T00:32:59.793Z,1004.15
2017-03-31T00:33:21.513Z,1004.03
2017-03-31T00:33:43.248Z,1004.03
2017-03-31T00:34:04.982Z,1004.12
2017-03-31T00:34:26.722Z,1004.09
2017-03-31T00:34:48.639Z,1004.23
2017-03-31T00:35:46.967Z,1004.23
2017-03-31T00:36:08.654Z,1004.10
2017-03-31T00:36:30.354Z,1004.14
2017-03-31T00:36:52.075Z,1004.29
2017-03-31T00:37:13.812Z,1004.11
2017-03-31T00:37:35.559Z,1004.03
2017-03-31T00:37:57.368Z,1004.09
2017-03-31T00:38:19.119Z,1004.04
2017-03-31T00:38:40.873Z,1004.09
2017-03-31T00:39:02.600Z,1004.31
2017-03-31T00:39:24.323Z,1004.32
2017-03-31T00:39:46.050Z,1004.21
2017-03-31T00:40:07.763Z,1003.99
2017-03-31T00:40:29.488Z,1003.98
2017-03-31T00:40:51.222Z,1003.95
2017-03-31T00:41:13.081Z,1004.10
2017-03-31T00:41:34.819Z,1004.08
2017-03-31T00:41:56.565Z,1004.10
2017-03-31T00:42:18.306Z,1004.19
2017-03-31T00:42:40.029Z,1004.32
2017-03-31T00:43:01.808Z,1004.28
2017-03-31T00:43:23.618Z,1004.01
2017-03-31T00:43:45.372Z,1003.95
2017-03-31T00:44:07.206Z,1003.86
2017-03-31T00:44:28.944Z,1003.93
2017-03-31T00:44:50.665Z,1004.02
2017-03-31T00:45:12.403Z,1003.98
2017-03-31T00:45:34.179Z,1003.93
2017-03-31T00:45:55.904Z,1003.87
2017-03-31T00:46:17.656Z,1003.89
2017-03-31T00:46:39.410Z,1004.01
2017-03-31T00:47:01.213Z,1004.23
2017-03-31T00:47:22.922Z,1004.24
2017-03-31T00:47:44.628Z,1004.18
2017-03-31T00:48:11.226Z,1003.95
2017-03-31T00:48:32.938Z,1003.70
2017-03-31T00:48:54.655Z,1003.95
2017-03-31T00:49:47.661Z,1003.86
2017-03-31T00:50:09.359Z,1003.86
2017-03-31T00:50:31.063Z,1003.83
2017-03-31T00:50:52.810Z,1003.83
2017-03-31T00:51:45.769Z,1003.96
2017-03-31T00:52:07.551Z,1004.01
2017-03-31T00:53:00.504Z,1003.85
2017-03-31T00:53:53.554Z,1004.14
2017-03-31T00:54:20.079Z,1004.11
2017-03-31T00:54:41.772Z,1003.69
2017-03-31T00:55:03.538Z,1003.88
2017-03-31T00:55:25.264Z,1003.97
2017-03-31T00:55:46.972Z,1004.03
2017-03-31T00:56:45.456Z,1003.78
2017-03-31T00:57:07.169Z,1004.15
2017-03-31T00:57:28.879Z,1003.99
2017-03-31T00:57:55.497Z,1003.90
2017-03-31T00:58:21.988Z,1003.78
2017-03-31T00:58:43.700Z,1003.77
2017-03-31T00:59:36.711Z,1003.70
2017-03-31T01:00:03.213Z,1003.58
2017-03-31T01:00:24.992Z,1003.69
2017-03-31T01:00:46.765Z,1003.70
2017-03-31T01:01:08.550Z,1003.68
2017-03-31T01:01:30.255Z,1003.70
2017-03-31T01:01:56.897Z,1003.93
2017-03-31T01:02:18.571Z,1003.82
2017-03-31T01:02:40.259Z,1003.90
2017-03-31T01:03:01.965Z,1004.09
2017-03-31T01:03:23.792Z,1003.92
2017-03-31T01:03:45.498Z,1003.53
2017-03-31T01:04:11.979Z,1003.55
2017-03-31T01:04:33.738Z,1003.67
2017-03-31T01:04:55.529Z,1003.81
2017-03-31T01:05:22.130Z,1004.00
2017-03-31T01:05:43.833Z,1004.12
2017-03-31T01:06:05.538Z,1004.12
2017-03-31T01:06:32.152Z,1004.06
2017-03-31T01:06:53.772Z,1003.92
2017-03-31T01:07:15.486Z,1003.84
2017-03-31T01:08:18.777Z,1003.52
2017-03-31T01:08:40.478Z,1003.49
2017-03-31T01:09:38.959Z,1003.94
2017-03-31T01:10:05.455Z,1003.76
2017-03-31T01:10:27.141Z,1003.61
2017-03-31T01:10:48.907Z,1003.60
2017-03-31T01:11:41.886Z,1003.89
2017-03-31T01:12:03.684Z,1003.53
2017-03-31T01:12:25.384Z,1003.67
2017-03-31T01:12:47.088Z,1003.65
2017-03-31T01:13:08.788Z,1003.84
2017-03-31T01:13:30.531Z,1003.75
2017-03-31T01:13:52.240Z,1003.51
2017-03-31T01:14:13.942Z,1003.62
2017-03-31T01:15:06.957Z,1003.80
2017-03-31T01:15:28.664Z,1003.69
2017-03-31T01:16:21.663Z,1003.89
2017-03-31T01:16:43.369Z,1003.87
2017-03-31T01:17:36.381Z,1003.56
2017-03-31T01:18:29.407Z,1003.48
2017-03-31T01:19:22.361Z,1003.63
2017-03-31T01:19:48.972Z,1003.69
2017-03-31T01:20:10.596Z,1003.61
2017-03-31T01:21:08.905Z,1003.61
2017-03-31T01:22:02.908Z,1003.70
2017-03-31T01:22:55.915Z,1003.81
2017-03-31T01:23:17.622Z,1003.69
2017-03-31T01:24:10.634Z,1003.86
2017-03-31T01:25:17.919Z,1003.60
2017-03-31T01:25:39.630Z,1003.65
2017-03-31T01:26:32.666Z,1003.55
2017-03-31T01:26:54.369Z,1003.90
2017-03-31T01:27:20.870Z,1003.61
2017-03-31T01:27:42.550Z,1003.80
2017-03-31T01:28:04.309Z,1003.77
2017-03-31T01:28:30.793Z,1003.42
2017-03-31T01:28:52.524Z,1003.52
2017-03-31T01:29:14.282Z,1003.56
2017-03-31T01:29:40.779Z,1003.55
2017-03-31T01:30:02.483Z,1003.53
2017-03-31T01:30:24.174Z,1003.69
2017-03-31T01:30:50.797Z,1003.60
2017-03-31T01:31:12.425Z,1003.62
2017-03-31T01:31:34.127Z,1003.51
2017-03-31T01:32:00.742Z,1003.53
2017-03-31T01:32:22.361Z,1003.68
2017-03-31T01:32:44.061Z,1003.56
2017-03-31T01:33:10.573Z,1003.52
2017-03-31T01:33:32.255Z,1003.62
2017-03-31T01:33:53.968Z,1003.79
2017-03-31T01:34:15.670Z,1003.68
2017-03-31T01:34:37.400Z,1003.55
2017-03-31T01:34:59.154Z,1003.59
2017-03-31T01:35:25.648Z,1003.64
2017-03-31T01:35:47.348Z,1003.59
2017-03-31T01:36:09.132Z,1003.56
2017-03-31T01:36:35.637Z,1003.69
2017-03-31T01:36:57.317Z,1003.59
2017-03-31T01:37:19.064Z,1003.66
2017-03-31T01:38:12.012Z,1003.75
2017-03-31T01:38:38.601Z,1003.64
2017-03-31T01:39:00.230Z,1003.71
2017-03-31T01:39:53.301Z,1003.59
2017-03-31T01:40:46.272Z,1003.54
2017-03-31T01:41:12.882Z,1003.54
2017-03-31T01:41:34.536Z,1003.63
2017-03-31T01:41:56.232Z,1003.83
2017-03-31T01:42:22.836Z,1003.78
2017-03-31T01:42:44.466Z,1004.23
2017-03-31T01:43:10.955Z,1003.57
2017-03-31T01:43:32.627Z,1003.88
2017-03-31T01:43:54.397Z,1003.75
2017-03-31T01:44:52.772Z,1003.54
2017-03-31T01:45:14.548Z,1003.31
2017-03-31T01:46:07.520Z,1003.45
2017-03-31T01:46:29.295Z,1003.85
2017-03-31T01:46:50.988Z,1003.92
2017-03-31T01:47:12.693Z,1003.60
2017-03-31T01:47:34.402Z,1003.54
2017-03-31T01:48:01.003Z,1003.44
2017-03-31T01:48:22.622Z,1003.46
2017-03-31T01:49:54.971Z,1003.72
2017-03-31T01:50:17.663Z,1003.35
2017-03-31T01:50:44.262Z,1003.55
2017-03-31T01:51:05.953Z,1003.51
2017-03-31T01:51:32.455Z,1003.47
2017-03-31T01:51:56.900Z,1003.83
2017-03-31T01:52:23.403Z,1003.69
2017-03-31T01:52:45.076Z,1003.41
2017-03-31T01:53:06.845Z,1003.45
2017-03-31T01:53:28.555Z,1003.51
2017-03-31T01:53:50.246Z,1003.35
2017-03-31T01:54:16.855Z,1003.51
2017-03-31T01:55:09.749Z,1003.57
2017-03-31T01:56:08.019Z,1003.66
2017-03-31T01:56:29.731Z,1003.52
2017-03-31T01:56:52.462Z,1003.47
2017-03-31T01:57:14.247Z,1003.55
2017-03-31T01:57:36.023Z,1003.51
2017-03-31T01:59:19.335Z,1003.99
2017-03-31T01:59:41.030Z,1003.65
2017-03-31T02:00:02.771Z,1003.48
2017-03-31T02:00:24.490Z,1003.43
2017-03-31T02:00:46.204Z,1003.56
2017-03-31T02:01:07.920Z,1003.59
2017-03-31T02:01:29.656Z,1003.66
2017-03-31T02:01:51.359Z,1003.63
2017-03-31T02:02:44.326Z,1003.54
2017-03-31T02:03:06.043Z,1003.63
2017-03-31T02:03:27.730Z,1003.60
2017-03-31T02:03:49.435Z,1003.71
2017-03-31T02:04:11.139Z,1003.45
2017-03-31T02:04:32.853Z,1003.42
2017-03-31T02:04:54.582Z,1003.45
2017-03-31T02:05:42.778Z,1003.50
2017-03-31T02:06:04.524Z,1003.40
2017-03-31T02:06:26.258Z,1003.67
2017-03-31T02:06:52.788Z,1003.35
2017-03-31T02:07:15.519Z,1003.51
2017-03-31T02:07:37.228Z,1003.46
2017-03-31T02:08:35.538Z,1003.56
2017-03-31T02:08:57.249Z,1003.84
2017-03-31T02:09:59.762Z,1003.43
2017-03-31T02:10:21.464Z,1003.93
2017-03-31T02:10:43.158Z,1003.58
2017-03-31T02:11:04.868Z,1003.54
2017-03-31T02:11:31.339Z,1003.39
2017-03-31T02:11:53.037Z,1003.39
2017-03-31T02:12:46.055Z,1003.39
2017-03-31T02:13:39.030Z,1003.39
2017-03-31T02:14:00.736Z,1003.72
2017-03-31T02:14:53.707Z,1003.36
2017-03-31T02:15:20.184Z,1003.34
2017-03-31T02:15:41.908Z,1003.61
2017-03-31T02:16:08.395Z,1003.71
2017-03-31T02:16:30.101Z,1003.36
2017-03-31T02:17:32.647Z,1003.64
2017-03-31T02:17:54.338Z,1003.46
2017-03-31T02:18:16.034Z,1003.79
2017-03-31T02:18:42.517Z,1003.33
2017-03-31T02:19:04.222Z,1003.41
2017-03-31T02:19:30.725Z,1003.42
2017-03-31T02:19:52.444Z,1003.34
2017-03-31T02:20:18.929Z,1003.25
2017-03-31T02:20:40.637Z,1003.52
2017-03-31T02:21:02.365Z,1003.54
2017-03-31T02:22:04.869Z,1003.55
2017-03-31T02:22:26.559Z,1003.44
2017-03-31T02:22:48.288Z,1003.35
2017-03-31T02:23:50.795Z,1003.22
2017-03-31T02:24:12.489Z,1003.26
2017-03-31T02:24:34.185Z,1003.20
2017-03-31T02:24:55.882Z,1003.42
2017-03-31T02:25:17.574Z,1003.54
2017-03-31T02:25:39.267Z,1003.35
2017-03-31T02:26:00.977Z,1003.34
2017-03-31T02:26:22.677Z,1003.42
2017-03-31T02:27:21.076Z,1003.29
2017-03-31T02:27:42.788Z,1003.26
2017-03-31T02:28:04.517Z,1003.24
2017-03-31T02:28:26.219Z,1003.28
2017-03-31T02:28:47.908Z,1003.29
2017-03-31T02:29:09.614Z,1003.11
2017-03-31T02:29:31.321Z,1003.26
2017-03-31T02:29:53.043Z,1003.35
2017-03-31T02:30:19.526Z,1003.17
2017-03-31T02:30:41.229Z,1003.24
2017-03-31T02:31:07.705Z,1003.30
2017-03-31T02:31:29.404Z,1003.34
2017-03-31T02:31:55.894Z,1003.45
2017-03-31T02:32:17.621Z,1003.16
2017-03-31T02:32:39.360Z,1003.27
2017-03-31T02:33:01.100Z,1003.15
2017-03-31T02:33:22.793Z,1003.34
2017-03-31T02:33:44.488Z,1003.33
2017-03-31T02:34:06.199Z,1003.35
2017-03-31T02:34:27.939Z,1003.19
2017-03-31T02:35:30.446Z,1003.16
2017-03-31T02:35:56.916Z,1003.30
2017-03-31T02:36:18.626Z,1003.20
2017-03-31T02:36:40.334Z,1003.43
2017-03-31T02:37:38.612Z,1003.32
2017-03-31T02:38:05.105Z,1002.96
2017-03-31T02:38:31.609Z,1003.10
2017-03-31T02:38:53.358Z,1003.40
2017-03-31T02:39:19.865Z,1003.22
2017-03-31T02:39:41.596Z,1003.05
2017-03-31T02:40:03.331Z,1003.12
2017-03-31T02:41:01.625Z,1003.11
2017-03-31T02:41:23.331Z,1003.07
2017-03-31T02:41:45.055Z,1003.05
2017-03-31T02:42:06.780Z,1003.30
2017-03-31T02:42:28.535Z,1003.20
2017-03-31T02:42:50.264Z,1003.23
2017-03-31T02:43:12.036Z,1003.14
2017-03-31T02:43:33.774Z,1003.28
2017-03-31T02:43:55.475Z,1003.15
2017-03-31T02:44:17.165Z,1003.22
2017-03-31T02:44:38.858Z,1003.34
2017-03-31T02:45:00.544Z,1003.17
2017-03-31T02:45:22.249Z,1003.06
2017-03-31T02:45:43.944Z,1003.07
2017-03-31T02:46:46.455Z,1003.10
2017-03-31T02:47:08.171Z,1003.19
2017-03-31T02:47:29.887Z,1003.11
2017-03-31T02:47:51.623Z,1003.10
2017-03-31T02:48:13.358Z,1003.13
2017-03-31T02:48:39.848Z,1003.23
2017-03-31T02:49:01.616Z,1003.09
2017-03-31T02:49:28.108Z,1003.19
2017-03-31T02:49:49.843Z,1003.07
2017-03-31T02:50:16.353Z,1003.05
2017-03-31T02:50:39.101Z,1003.06
2017-03-31T02:51:00.845Z,1003.03
2017-03-31T02:52:03.363Z,1003.28
2017-03-31T02:52:26.093Z,1003.04
2017-03-31T02:52:52.602Z,1003.09
2017-03-31T02:53:14.315Z,1003.18
2017-03-31T02:53:36.075Z,1003.05
2017-03-31T02:54:34.400Z,1003.10
2017-03-31T02:54:56.087Z,1003.18
2017-03-31T02:55:17.779Z,1003.39
2017-03-31T02:55:39.467Z,1003.11
2017-03-31T02:56:01.162Z,1003.15
2017-03-31T02:56:22.853Z,1003.13
2017-03-31T02:56:44.543Z,1003.30
2017-03-31T02:57:06.247Z,1002.97
2017-03-31T02:57:27.956Z,1003.02
2017-03-31T02:57:49.810Z,1002.91
2017-03-31T02:58:52.367Z,1003.15
2017-03-31T02:59:14.096Z,1003.02
2017-03-31T02:59:35.810Z,1003.13
2017-03-31T03:00:28.810Z,1002.96
2017-03-31T03:01:31.305Z,1003.06
2017-03-31T03:01:52.998Z,1003.17
2017-03-31T03:02:14.704Z,1003.13
2017-03-31T03:02:36.423Z,1003.04
2017-03-31T03:02:58.124Z,1002.93
2017-03-31T03:03:19.820Z,1002.99
2017-03-31T03:03:41.650Z,1003.04
2017-03-31T03:04:03.373Z,1002.98
2017-03-31T03:04:29.873Z,1002.94
2017-03-31T03:04:56.367Z,1003.02
2017-03-31T03:05:18.061Z,1002.97
2017-03-31T03:05:39.764Z,1002.93
2017-03-31T03:06:06.234Z,1002.94
2017-03-31T03:06:27.960Z,1002.89
2017-03-31T03:06:49.687Z,1003.14
2017-03-31T03:07:42.728Z,1002.98
2017-03-31T03:08:04.427Z,1003.00
2017-03-31T03:08:30.986Z,1003.33
2017-03-31T03:08:52.846Z,1003.33
2017-03-31T03:09:14.662Z,1002.94
2017-03-31T03:09:36.365Z,1002.85
2017-03-31T03:09:58.156Z,1002.99
2017-03-31T03:10:19.926Z,1002.79
2017-03-31T03:10:41.621Z,1002.89
2017-03-31T03:11:03.316Z,1002.89
2017-03-31T03:11:25.097Z,1003.01
2017-03-31T03:11:46.888Z,1002.83
2017-03-31T03:12:08.671Z,1002.79
2017-03-31T03:12:35.157Z,1002.92
2017-03-31T03:12:56.936Z,1002.92
2017-03-31T03:13:18.644Z,1002.80
2017-03-31T03:13:40.423Z,1003.04
2017-03-31T03:14:02.113Z,1003.08
2017-03-31T03:14:23.912Z,1003.03
2017-03-31T03:14:50.379Z,1002.92
2017-03-31T03:15:12.075Z,1002.96
2017-03-31T03:15:33.781Z,1002.94
2017-03-31T03:16:00.342Z,1002.72
2017-03-31T03:16:22.038Z,1002.82
2017-03-31T03:16:43.734Z,1003.04
2017-03-31T03:17:05.441Z,1002.96
2017-03-31T03:17:27.229Z,1002.81
2017-03-31T03:17:48.937Z,1002.96
2017-03-31T03:18:10.659Z,1002.76
2017-03-31T03:18:32.331Z,1002.99
2017-03-31T03:18:54.115Z,1002.82
2017-03-31T03:19:15.822Z,1002.98
2017-03-31T03:19:37.532Z,1002.95
2017-03-31T03:20:30.472Z,1002.71
2017-03-31T03:21:23.569Z,1002.81
2017-03-31T03:21:45.359Z,1002.86
2017-03-31T03:22:07.064Z,1003.03
2017-03-31T03:22:28.851Z,1002.91
2017-03-31T03:22:50.636Z,1002.84
2017-03-31T03:23:12.345Z,1002.75
2017-03-31T03:23:34.038Z,1002.95
2017-03-31T03:23:55.739Z,1002.90
2017-03-31T03:24:17.439Z,1002.82
2017-03-31T03:24:39.341Z,1002.88
2017-03-31T03:25:00.991Z,1002.87
2017-03-31T03:25:22.786Z,1002.84
2017-03-31T03:25:44.567Z,1002.84
2017-03-31T03:26:11.044Z,1002.92
2017-03-31T03:26:32.828Z,1002.94
2017-03-31T03:26:54.516Z,1003.07
2017-03-31T03:27:16.218Z,1002.77
2017-03-31T03:27:38.007Z,1002.81
2017-03-31T03:27:59.707Z,1002.86
2017-03-31T03:28:21.595Z,1002.96
2017-03-31T03:28:43.388Z,1002.91
2017-03-31T03:29:05.078Z,1002.94
2017-03-31T03:29:31.651Z,1002.88
2017-03-31T03:29:53.510Z,1002.75
2017-03-31T03:30:51.801Z,1002.89
2017-03-31T03:31:13.591Z,1002.82
2017-03-31T03:31:35.372Z,1002.82
2017-03-31T03:32:01.841Z,1002.97
2017-03-31T03:32:23.621Z,1002.81
2017-03-31T03:32:50.089Z,1002.79
2017-03-31T03:33:11.966Z,1002.82
2017-03-31T03:33:33.661Z,1003.01
2017-03-31T03:34:00.236Z,1002.76
2017-03-31T03:34:22.048Z,1003.10
2017-03-31T03:34:43.632Z,1002.90
2017-03-31T03:35:05.318Z,1003.05
2017-03-31T03:35:27.110Z,1003.16
2017-03-31T03:35:48.941Z,1002.58
2017-03-31T03:36:10.577Z,1002.57
2017-03-31T03:36:32.445Z,1002.82
2017-03-31T03:36:54.134Z,1002.81
2017-03-31T03:37:15.917Z,1002.96
2017-03-31T03:37:37.703Z,1002.87
2017-03-31T03:37:59.499Z,1003.13
2017-03-31T03:38:21.369Z,1002.85
2017-03-31T03:38:43.089Z,1002.82
2017-03-31T03:39:04.890Z,1002.82
2017-03-31T03:39:31.363Z,1002.74
2017-03-31T03:39:53.145Z,1002.76
2017-03-31T03:40:14.846Z,1002.88
2017-03-31T03:40:41.319Z,1002.80
2017-03-31T03:41:03.104Z,1002.98
2017-03-31T03:41:24.895Z,1002.74
2017-03-31T03:41:46.594Z,1002.71
2017-03-31T03:42:08.393Z,1002.72
2017-03-31T03:42:34.947Z,1002.68
2017-03-31T03:42:56.736Z,1002.65
2017-03-31T03:43:18.599Z,1002.88
2017-03-31T03:43:40.300Z,1002.77
2017-03-31T03:44:02.066Z,1002.87
2017-03-31T03:44:23.823Z,1002.83
2017-03-31T03:45:22.208Z,1002.63
2017-03-31T03:45:44.110Z,1002.68
2017-03-31T03:46:05.807Z,1002.82
2017-03-31T03:46:27.719Z,1003.12
2017-03-31T03:46:49.443Z,1002.99
2017-03-31T03:47:11.143Z,1002.85
2017-03-31T03:47:32.848Z,1002.96
2017-03-31T03:47:54.545Z,1002.53
2017-03-31T03:48:16.329Z,1002.70
2017-03-31T03:48:38.114Z,1002.83
2017-03-31T03:48:59.889Z,1002.68
2017-03-31T03:49:26.358Z,1002.83
2017-03-31T03:49:48.082Z,1002.60
2017-03-31T03:50:09.975Z,1002.57
2017-03-31T03:50:31.702Z,1003.05
2017-03-31T03:50:53.484Z,1002.78
2017-03-31T03:51:15.203Z,1002.50
2017-03-31T03:51:41.747Z,1002.65
2017-03-31T03:52:04.169Z,1002.73
2017-03-31T03:52:25.873Z,1002.63
2017-03-31T03:52:47.658Z,1002.67
2017-03-31T03:53:09.445Z,1002.63
2017-03-31T03:53:31.154Z,1002.73
2017-03-31T03:53:52.861Z,1002.61
2017-03-31T03:54:14.555Z,1002.62
2017-03-31T03:54:39.174Z,1002.67
2017-03-31T03:55:00.970Z,1002.79
2017-03-31T03:55:22.763Z,1002.59
2017-03-31T03:55:44.469Z,1002.60
2017-03-31T03:56:11.044Z,1002.70
2017-03-31T03:56:32.903Z,1002.80
2017-03-31T03:56:54.597Z,1002.61
2017-03-31T03:57:16.430Z,1002.74
2017-03-31T03:57:38.200Z,1002.73
2017-03-31T03:57:59.995Z,1002.78
2017-03-31T03:58:53.144Z,1002.76
2017-03-31T03:59:46.102Z,1002.73
2017-03-31T04:00:07.891Z,1002.70
2017-03-31T04:00:34.361Z,1002.58
2017-03-31T04:00:56.136Z,1002.63
2017-03-31T04:01:17.920Z,1002.84
2017-03-31T04:01:44.515Z,1002.52
2017-03-31T04:02:11.013Z,1002.63
2017-03-31T04:02:32.966Z,1002.73
2017-03-31T04:03:25.914Z,1002.80
2017-03-31T04:03:47.685Z,1002.95
2017-03-31T04:04:09.376Z,1002.68
2017-03-31T04:04:31.153Z,1002.62
2017-03-31T04:05:24.281Z,1002.87
2017-03-31T04:05:46.187Z,1002.74
2017-03-31T04:06:12.585Z,1002.62
2017-03-31T04:06:34.377Z,1002.66
2017-03-31T04:06:56.166Z,1002.71
2017-03-31T04:07:17.975Z,1002.68
2017-03-31T04:07:39.697Z,1002.70
2017-03-31T04:08:01.495Z,1002.74
2017-03-31T04:08:23.291Z,1002.68
2017-03-31T04:08:45.089Z,1002.62
2017-03-31T04:09:38.046Z,1002.93
2017-03-31T04:09:59.847Z,1002.65
2017-03-31T04:10:21.633Z,1002.61
2017-03-31T04:10:43.416Z,1002.70
2017-03-31T04:11:05.187Z,1002.68
2017-03-31T04:11:26.989Z,1002.68
2017-03-31T04:11:48.853Z,1002.61
2017-03-31T04:12:15.330Z,1002.79
2017-03-31T04:12:37.121Z,1002.69
2017-03-31T04:12:58.940Z,1002.70
2017-03-31T04:13:20.729Z,1002.63
2017-03-31T04:13:42.492Z,1002.58
2017-03-31T04:14:04.199Z,1002.66
2017-03-31T04:14:52.372Z,1002.71
2017-03-31T04:15:14.070Z,1002.81
2017-03-31T04:15:35.857Z,1002.73
2017-03-31T04:15:57.635Z,1002.70
2017-03-31T04:16:19.331Z,1002.56
2017-03-31T04:16:41.034Z,1002.70
2017-03-31T04:17:02.739Z,1002.51
2017-03-31T04:17:24.522Z,1002.56
2017-03-31T04:17:50.991Z,1002.73
2017-03-31T04:18:12.801Z,1002.60
2017-03-31T04:18:34.512Z,1002.65
2017-03-31T04:19:00.982Z,1002.74
2017-03-31T04:19:22.687Z,1002.85
2017-03-31T04:20:25.266Z,1002.47
2017-03-31T04:20:47.063Z,1002.58
2017-03-31T04:21:18.287Z,1002.75
2017-03-31T04:22:11.369Z,1002.95
2017-03-31T04:23:04.325Z,1002.73
2017-03-31T04:23:26.100Z,1002.76
2017-03-31T04:24:24.405Z,1002.42
2017-03-31T04:25:17.403Z,1002.55
2017-03-31T04:26:15.693Z,1002.50
2017-03-31T04:26:37.396Z,1002.52
2017-03-31T04:26:59.102Z,1002.73
2017-03-31T04:27:20.798Z,1002.81
2017-03-31T04:27:42.485Z,1002.52
2017-03-31T04:28:04.209Z,1002.66
2017-03-31T04:29:02.520Z,1002.57
2017-03-31T04:29:24.233Z,1002.59
2017-03-31T04:29:50.708Z,1002.61
2017-03-31T04:30:12.430Z,1002.68
2017-03-31T04:31:05.371Z,1002.64
2017-03-31T04:31:31.850Z,1002.65
2017-03-31T04:31:53.571Z,1002.58
2017-03-31T04:32:56.123Z,1002.60
2017-03-31T04:33:17.821Z,1002.67
2017-03-31T04:34:10.801Z,1002.65
2017-03-31T04:34:37.293Z,1002.71
2017-03-31T04:34:59.013Z,1002.69
2017-03-31T04:35:20.721Z,1002.52
2017-03-31T04:35:42.429Z,1002.66
2017-03-31T04:36:04.126Z,1002.60
2017-03-31T04:36:25.818Z,1002.67
2017-03-31T04:36:52.293Z,1002.72
2017-03-31T04:37:13.986Z,1002.68
2017-03-31T04:38:21.331Z,1002.51
2017-03-31T04:38:57.859Z,1002.70
2017-03-31T04:40:05.143Z,1002.97
2017-03-31T04:40:26.829Z,1002.96
2017-03-31T04:40:48.531Z,1002.84
2017-03-31T04:41:41.494Z,1002.46
2017-03-31T04:42:34.448Z,1002.50
2017-03-31T04:42:56.155Z,1002.63
2017-03-31T04:43:22.626Z,1002.69
2017-03-31T04:43:44.328Z,1002.61
2017-03-31T04:44:06.042Z,1002.62
2017-03-31T04:44:32.520Z,1002.68
2017-03-31T04:44:54.242Z,1002.61
2017-03-31T04:45:15.939Z,1002.54
2017-03-31T04:45:37.640Z,1002.66
2017-03-31T04:45:59.345Z,1002.53
2017-03-31T04:46:21.031Z,1002.84
2017-03-31T04:46:42.732Z,1002.84
2017-03-31T04:47:04.456Z,1002.64
2017-03-31T04:47:30.913Z,1002.94
2017-03-31T04:47:57.383Z,1002.39
2017-03-31T04:48:19.098Z,1002.58
2017-03-31T04:49:07.385Z,1002.43
2017-03-31T04:49:29.068Z,1002.42
2017-03-31T04:50:31.573Z,1002.65
2017-03-31T04:50:53.270Z,1002.60
2017-03-31T04:51:19.765Z,1002.57
2017-03-31T04:51:41.447Z,1002.61
2017-03-31T04:52:03.172Z,1002.69
2017-03-31T04:53:05.658Z,1002.50
2017-03-31T04:53:27.360Z,1002.81
2017-03-31T04:54:20.334Z,1002.43
2017-03-31T04:54:46.818Z,1002.51
2017-03-31T04:55:08.581Z,1002.61
2017-03-31T04:55:35.058Z,1002.61
2017-03-31T04:55:56.757Z,1002.57
2017-03-31T04:56:18.457Z,1002.63
2017-03-31T04:56:40.166Z,1002.98
2017-03-31T04:57:01.867Z,1002.56
2017-03-31T04:57:28.335Z,1002.71
2017-03-31T04:57:50.023Z,1002.67
2017-03-31T04:58:11.723Z,1002.83
2017-03-31T04:58:33.426Z,1002.97
2017-03-31T04:58:55.125Z,1002.88
2017-03-31T04:59:16.820Z,1002.94
2017-03-31T04:59:38.523Z,1002.96
2017-03-31T05:00:05.010Z,1002.70
2017-03-31T05:00:26.715Z,1002.84
2017-03-31T05:00:48.437Z,1002.97
2017-03-31T05:01:46.759Z,1002.95
2017-03-31T05:02:08.443Z,1002.69
2017-03-31T05:02:34.922Z,1002.57
2017-03-31T05:02:56.626Z,1002.88
2017-03-31T05:03:49.569Z,1003.05
2017-03-31T05:04:11.292Z,1002.70
2017-03-31T05:04:37.781Z,1002.77
2017-03-31T05:04:59.523Z,1002.78
2017-03-31T05:05:21.272Z,1002.76
2017-03-31T05:05:47.740Z,1002.87
2017-03-31T05:06:09.443Z,1002.74
2017-03-31T05:06:31.137Z,1002.61
2017-03-31T05:06:52.846Z,1002.79
2017-03-31T05:07:14.564Z,1002.78
2017-03-31T05:07:36.283Z,1002.89
2017-03-31T05:07:57.988Z,1002.86
2017-03-31T05:08:19.680Z,1002.62
2017-03-31T05:08:41.397Z,1002.91
2017-03-31T05:09:34.384Z,1002.57
2017-03-31T05:09:56.094Z,1002.63
2017-03-31T05:10:17.787Z,1002.76
2017-03-31T05:10:39.518Z,1002.86
2017-03-31T05:11:01.261Z,1002.88
2017-03-31T05:11:22.975Z,1002.95
2017-03-31T05:11:44.670Z,1002.61
2017-03-31T05:12:42.441Z,1002.67
2017-03-31T05:13:08.956Z,1002.88
2017-03-31T05:13:30.692Z,1002.73
2017-03-31T05:13:52.523Z,1002.94
2017-03-31T05:14:14.223Z,1002.87
2017-03-31T05:15:07.215Z,1002.74
2017-03-31T05:15:33.691Z,1002.72
2017-03-31T05:15:55.470Z,1002.96
2017-03-31T05:16:17.198Z,1002.77
2017-03-31T05:16:38.929Z,1002.58
2017-03-31T05:17:00.618Z,1002.79
2017-03-31T05:17:27.088Z,1002.65
2017-03-31T05:17:48.811Z,1002.83
2017-03-31T05:18:10.503Z,1003.02
2017-03-31T05:18:32.209Z,1002.88
2017-03-31T05:18:53.922Z,1002.70
2017-03-31T05:19:15.618Z,1002.85
2017-03-31T05:20:13.940Z,1002.67
2017-03-31T05:20:35.704Z,1002.70
2017-03-31T05:20:57.435Z,1002.81
2017-03-31T05:21:19.170Z,1002.78
2017-03-31T05:21:40.879Z,1002.93
2017-03-31T05:22:02.598Z,1002.87
2017-03-31T05:22:24.303Z,1002.96
2017-03-31T05:22:45.988Z,1002.87
2017-03-31T05:23:07.684Z,1002.72
2017-03-31T05:24:10.179Z,1003.26
2017-03-31T05:25:03.142Z,1002.74
2017-03-31T05:25:24.846Z,1002.78
2017-03-31T05:26:27.339Z,1002.68
2017-03-31T05:26:49.063Z,1003.08
2017-03-31T05:27:10.777Z,1002.71
2017-03-31T05:27:32.505Z,1002.71
2017-03-31T05:27:54.230Z,1002.71
2017-03-31T05:28:15.938Z,1002.71
2017-03-31T05:28:37.654Z,1002.63
2017-03-31T05:29:04.164Z,1002.67
2017-03-31T05:29:57.262Z,1002.64
2017-03-31T05:30:18.969Z,1002.77
2017-03-31T05:30:40.666Z,1003.06